sensor_id;sensor_type;location;lat;lon;timestamp;P1;durP1;ratioP1;P2;durP2;ratioP2
61978;SDS011;47938;48.176;16.414;2022-12-07T00:01:14;9.55;;;6.75;;
61978;SDS011;47938;48.176;16.414;2022-12-07T00:03:42;8.38;;;6.43;;
61978;SDS011;47938;48.176;16.414;2022-12-07T00:06:10;9.13;;;6.80;;
61978;SDS011;47938;48.176;16.414;2022-12-07T00:08:37;8.77;;;6.03;;
61978;SDS011;47938;48.176;16.414;2022-12-07T00:11:03;11.23;;;6.50;;
61978;SDS011;47938;48.176;16.414;2022-12-07T00:13:34;7.45;;;6.13;;
61978;SDS011;47938;48.176;16.414;2022-12-07T00:16:04;8.48;;;6.68;;
61978;SDS011;47938;48.176;16.414;2022-12-07T00:18:31;8.17;;;6.47;;
61978;SDS011;47938;48.176;16.414;2022-12-07T00:21:01;10.88;;;6.47;;
61978;SDS011;47938;48.176;16.414;2022-12-07T00:23:31;8.85;;;5.68;;
61978;SDS011;47938;48.176;16.414;2022-12-07T00:26:08;8.95;;;6.25;;
61978;SDS011;47938;48.176;16.414;2022-12-07T00:28:34;10.10;;;7.03;;
61978;SDS011;47938;48.176;16.414;2022-12-07T00:31:00;11.65;;;6.80;;
61978;SDS011;47938;48.176;16.414;2022-12-07T00:33:27;8.13;;;5.90;;
61978;SDS011;47938;48.176;16.414;2022-12-07T00:35:56;8.23;;;6.57;;
61978;SDS011;47938;48.176;16.414;2022-12-07T00:38:23;7.25;;;6.32;;
61978;SDS011;47938;48.176;16.414;2022-12-07T00:40:55;8.38;;;6.88;;
61978;SDS011;47938;48.176;16.414;2022-12-07T00:43:22;9.07;;;6.85;;
61978;SDS011;47938;48.176;16.414;2022-12-07T00:45:47;9.70;;;7.18;;
61978;SDS011;47938;48.176;16.414;2022-12-07T00:48:13;9.63;;;6.50;;
61978;SDS011;47938;48.176;16.414;2022-12-07T00:50:38;13.48;;;7.20;;
61978;SDS011;47938;48.176;16.414;2022-12-07T00:53:04;11.00;;;7.45;;
61978;SDS011;47938;48.176;16.414;2022-12-07T00:55:32;10.52;;;7.00;;
61978;SDS011;47938;48.176;16.414;2022-12-07T00:57:59;10.52;;;7.15;;
61978;SDS011;47938;48.176;16.414;2022-12-07T01:00:24;9.77;;;7.00;;
61978;SDS011;47938;48.176;16.414;2022-12-07T01:02:50;10.50;;;7.90;;
61978;SDS011;47938;48.176;16.414;2022-12-07T01:05:15;10.32;;;7.90;;
61978;SDS011;47938;48.176;16.414;2022-12-07T01:07:41;10.82;;;8.43;;
61978;SDS011;47938;48.176;16.414;2022-12-07T01:10:07;11.05;;;8.98;;
61978;SDS011;47938;48.176;16.414;2022-12-07T01:12:33;10.60;;;8.05;;
61978;SDS011;47938;48.176;16.414;2022-12-07T01:14:58;11.60;;;7.93;;
61978;SDS011;47938;48.176;16.414;2022-12-07T01:17:24;17.35;;;9.73;;
61978;SDS011;47938;48.176;16.414;2022-12-07T01:19:49;10.60;;;8.30;;
61978;SDS011;47938;48.176;16.414;2022-12-07T01:22:15;10.95;;;8.38;;
61978;SDS011;47938;48.176;16.414;2022-12-07T01:24:41;15.48;;;9.05;;
61978;SDS011;47938;48.176;16.414;2022-12-07T01:27:06;13.82;;;8.45;;
61978;SDS011;47938;48.176;16.414;2022-12-07T01:29:32;11.05;;;9.02;;
61978;SDS011;47938;48.176;16.414;2022-12-07T01:31:57;10.82;;;8.57;;
61978;SDS011;47938;48.176;16.414;2022-12-07T01:34:23;12.40;;;8.80;;
61978;SDS011;47938;48.176;16.414;2022-12-07T01:36:49;12.00;;;9.15;;
61978;SDS011;47938;48.176;16.414;2022-12-07T01:39:14;13.68;;;9.15;;
61978;SDS011;47938;48.176;16.414;2022-12-07T01:41:40;15.40;;;10.25;;
61978;SDS011;47938;48.176;16.414;2022-12-07T01:46:49;19.05;;;8.98;;
61978;SDS011;47938;48.176;16.414;2022-12-07T01:49:18;13.27;;;8.98;;
61978;SDS011;47938;48.176;16.414;2022-12-07T01:51:47;12.30;;;8.68;;
61978;SDS011;47938;48.176;16.414;2022-12-07T01:54:14;11.85;;;8.48;;
61978;SDS011;47938;48.176;16.414;2022-12-07T01:56:42;12.55;;;9.57;;
61978;SDS011;47938;48.176;16.414;2022-12-07T01:59:10;13.23;;;9.55;;
61978;SDS011;47938;48.176;16.414;2022-12-07T02:01:36;13.82;;;10.07;;
61978;SDS011;47938;48.176;16.414;2022-12-07T02:04:02;16.05;;;11.02;;
61978;SDS011;47938;48.176;16.414;2022-12-07T02:06:28;15.25;;;10.57;;
61978;SDS011;47938;48.176;16.414;2022-12-07T02:08:54;13.27;;;9.98;;
61978;SDS011;47938;48.176;16.414;2022-12-07T02:11:20;13.20;;;9.65;;
61978;SDS011;47938;48.176;16.414;2022-12-07T02:13:46;18.67;;;11.20;;
61978;SDS011;47938;48.176;16.414;2022-12-07T02:18:55;12.30;;;9.77;;
61978;SDS011;47938;48.176;16.414;2022-12-07T02:27:09;15.15;;;10.63;;
61978;SDS011;47938;48.176;16.414;2022-12-07T02:29:38;17.65;;;10.30;;
61978;SDS011;47938;48.176;16.414;2022-12-07T02:32:14;14.00;;;9.90;;
61978;SDS011;47938;48.176;16.414;2022-12-07T02:35:05;12.88;;;10.02;;
61978;SDS011;47938;48.176;16.414;2022-12-07T02:40:40;15.55;;;10.35;;
61978;SDS011;47938;48.176;16.414;2022-12-07T02:43:15;15.48;;;10.57;;
61978;SDS011;47938;48.176;16.414;2022-12-07T02:45:44;20.88;;;10.48;;
61978;SDS011;47938;48.176;16.414;2022-12-07T02:48:13;16.52;;;10.20;;
61978;SDS011;47938;48.176;16.414;2022-12-07T02:50:44;12.90;;;9.20;;
61978;SDS011;47938;48.176;16.414;2022-12-07T02:56:04;12.07;;;9.25;;
61978;SDS011;47938;48.176;16.414;2022-12-07T02:58:54;13.52;;;9.23;;
61978;SDS011;47938;48.176;16.414;2022-12-07T03:12:19;11.82;;;8.80;;
61978;SDS011;47938;48.176;16.414;2022-12-07T03:15:34;13.20;;;8.98;;
61978;SDS011;47938;48.176;16.414;2022-12-07T03:17:42;15.10;;;10.00;;
61978;SDS011;47938;48.176;16.414;2022-12-07T03:20:11;14.93;;;9.82;;
61978;SDS011;47938;48.176;16.414;2022-12-07T03:22:39;15.18;;;9.35;;
61978;SDS011;47938;48.176;16.414;2022-12-07T03:25:08;13.00;;;8.80;;
61978;SDS011;47938;48.176;16.414;2022-12-07T03:27:53;13.23;;;9.48;;
61978;SDS011;47938;48.176;16.414;2022-12-07T03:30:30;12.98;;;9.05;;
61978;SDS011;47938;48.176;16.414;2022-12-07T03:33:13;14.95;;;9.25;;
61978;SDS011;47938;48.176;16.414;2022-12-07T03:35:57;13.60;;;9.77;;
61978;SDS011;47938;48.176;16.414;2022-12-07T03:38:50;12.15;;;8.82;;
61978;SDS011;47938;48.176;16.414;2022-12-07T03:41:26;14.88;;;9.90;;
61978;SDS011;47938;48.176;16.414;2022-12-07T03:43:54;29.38;;;9.68;;
61978;SDS011;47938;48.176;16.414;2022-12-07T03:46:31;15.15;;;8.90;;
61978;SDS011;47938;48.176;16.414;2022-12-07T03:49:02;16.40;;;9.23;;
61978;SDS011;47938;48.176;16.414;2022-12-07T03:51:52;13.18;;;9.00;;
61978;SDS011;47938;48.176;16.414;2022-12-07T03:54:36;11.82;;;8.32;;
61978;SDS011;47938;48.176;16.414;2022-12-07T03:57:06;11.50;;;8.05;;
61978;SDS011;47938;48.176;16.414;2022-12-07T03:59:33;12.00;;;8.20;;
61978;SDS011;47938;48.176;16.414;2022-12-07T04:02:04;12.85;;;8.38;;
61978;SDS011;47938;48.176;16.414;2022-12-07T04:04:32;13.77;;;8.85;;
61978;SDS011;47938;48.176;16.414;2022-12-07T04:06:59;11.20;;;8.25;;
61978;SDS011;47938;48.176;16.414;2022-12-07T04:09:25;17.33;;;8.40;;
61978;SDS011;47938;48.176;16.414;2022-12-07T04:11:51;9.82;;;7.72;;
61978;SDS011;47938;48.176;16.414;2022-12-07T04:14:16;13.07;;;8.27;;
61978;SDS011;47938;48.176;16.414;2022-12-07T04:16:42;11.38;;;7.45;;
61978;SDS011;47938;48.176;16.414;2022-12-07T04:19:07;10.18;;;7.60;;
61978;SDS011;47938;48.176;16.414;2022-12-07T04:21:33;12.25;;;7.78;;
61978;SDS011;47938;48.176;16.414;2022-12-07T04:23:59;11.95;;;8.13;;
61978;SDS011;47938;48.176;16.414;2022-12-07T04:26:24;12.05;;;7.55;;
61978;SDS011;47938;48.176;16.414;2022-12-07T04:28:50;12.95;;;6.85;;
61978;SDS011;47938;48.176;16.414;2022-12-07T04:31:15;10.35;;;7.60;;
61978;SDS011;47938;48.176;16.414;2022-12-07T04:33:41;13.07;;;7.78;;
61978;SDS011;47938;48.176;16.414;2022-12-07T04:36:07;11.05;;;7.47;;
61978;SDS011;47938;48.176;16.414;2022-12-07T04:38:32;10.13;;;7.45;;
61978;SDS011;47938;48.176;16.414;2022-12-07T04:40:58;13.32;;;7.85;;
61978;SDS011;47938;48.176;16.414;2022-12-07T04:43:30;10.82;;;7.22;;
61978;SDS011;47938;48.176;16.414;2022-12-07T04:45:55;13.20;;;7.90;;
61978;SDS011;47938;48.176;16.414;2022-12-07T04:48:21;10.10;;;6.82;;
61978;SDS011;47938;48.176;16.414;2022-12-07T04:50:47;13.95;;;7.53;;
61978;SDS011;47938;48.176;16.414;2022-12-07T04:53:13;11.15;;;7.65;;
61978;SDS011;47938;48.176;16.414;2022-12-07T04:55:39;12.13;;;7.00;;
61978;SDS011;47938;48.176;16.414;2022-12-07T04:58:04;10.27;;;6.93;;
61978;SDS011;47938;48.176;16.414;2022-12-07T05:00:30;10.48;;;7.70;;
61978;SDS011;47938;48.176;16.414;2022-12-07T05:02:55;11.82;;;7.45;;
61978;SDS011;47938;48.176;16.414;2022-12-07T05:05:21;10.60;;;7.60;;
61978;SDS011;47938;48.176;16.414;2022-12-07T05:07:47;10.00;;;7.05;;
61978;SDS011;47938;48.176;16.414;2022-12-07T05:10:12;10.52;;;7.03;;
61978;SDS011;47938;48.176;16.414;2022-12-07T05:12:38;16.45;;;7.88;;
61978;SDS011;47938;48.176;16.414;2022-12-07T05:15:04;15.45;;;7.80;;
61978;SDS011;47938;48.176;16.414;2022-12-07T05:17:29;10.07;;;7.13;;
61978;SDS011;47938;48.176;16.414;2022-12-07T05:19:55;14.25;;;7.55;;
61978;SDS011;47938;48.176;16.414;2022-12-07T05:22:21;13.30;;;6.78;;
61978;SDS011;47938;48.176;16.414;2022-12-07T05:24:46;16.77;;;7.85;;
61978;SDS011;47938;48.176;16.414;2022-12-07T05:27:12;13.00;;;7.68;;
61978;SDS011;47938;48.176;16.414;2022-12-07T05:29:37;10.93;;;7.18;;
61978;SDS011;47938;48.176;16.414;2022-12-07T05:32:03;9.95;;;6.85;;
61978;SDS011;47938;48.176;16.414;2022-12-07T05:34:29;15.20;;;7.07;;
61978;SDS011;47938;48.176;16.414;2022-12-07T05:36:54;9.52;;;6.68;;
61978;SDS011;47938;48.176;16.414;2022-12-07T05:39:20;10.75;;;6.38;;
61978;SDS011;47938;48.176;16.414;2022-12-07T05:41:46;9.93;;;6.32;;
61978;SDS011;47938;48.176;16.414;2022-12-07T05:44:11;9.63;;;6.05;;
61978;SDS011;47938;48.176;16.414;2022-12-07T05:46:37;15.55;;;5.85;;
61978;SDS011;47938;48.176;16.414;2022-12-07T05:49:02;12.38;;;6.60;;
61978;SDS011;47938;48.176;16.414;2022-12-07T05:51:28;10.80;;;6.70;;
61978;SDS011;47938;48.176;16.414;2022-12-07T05:53:54;8.18;;;6.05;;
61978;SDS011;47938;48.176;16.414;2022-12-07T05:56:19;12.93;;;6.53;;
61978;SDS011;47938;48.176;16.414;2022-12-07T05:58:45;9.25;;;5.93;;
61978;SDS011;47938;48.176;16.414;2022-12-07T06:01:11;9.40;;;5.50;;
61978;SDS011;47938;48.176;16.414;2022-12-07T06:03:36;9.98;;;6.20;;
61978;SDS011;47938;48.176;16.414;2022-12-07T06:06:02;8.75;;;5.45;;
61978;SDS011;47938;48.176;16.414;2022-12-07T06:08:27;8.82;;;5.82;;
61978;SDS011;47938;48.176;16.414;2022-12-07T06:10:53;8.50;;;6.18;;
61978;SDS011;47938;48.176;16.414;2022-12-07T06:13:19;14.77;;;6.78;;
61978;SDS011;47938;48.176;16.414;2022-12-07T06:15:44;12.35;;;6.00;;
61978;SDS011;47938;48.176;16.414;2022-12-07T06:18:10;10.10;;;6.28;;
61978;SDS011;47938;48.176;16.414;2022-12-07T06:20:35;9.00;;;5.40;;
61978;SDS011;47938;48.176;16.414;2022-12-07T06:23:01;11.30;;;6.07;;
61978;SDS011;47938;48.176;16.414;2022-12-07T06:25:26;12.52;;;6.45;;
61978;SDS011;47938;48.176;16.414;2022-12-07T06:27:52;13.20;;;5.63;;
61978;SDS011;47938;48.176;16.414;2022-12-07T06:30:18;16.20;;;5.75;;
61978;SDS011;47938;48.176;16.414;2022-12-07T06:32:43;13.23;;;6.75;;
61978;SDS011;47938;48.176;16.414;2022-12-07T06:35:09;15.45;;;6.93;;
61978;SDS011;47938;48.176;16.414;2022-12-07T06:37:34;15.60;;;6.35;;
61978;SDS011;47938;48.176;16.414;2022-12-07T06:40:00;14.95;;;6.88;;
61978;SDS011;47938;48.176;16.414;2022-12-07T06:42:26;12.98;;;6.00;;
61978;SDS011;47938;48.176;16.414;2022-12-07T06:44:51;10.25;;;5.30;;
61978;SDS011;47938;48.176;16.414;2022-12-07T06:47:17;14.85;;;6.20;;
61978;SDS011;47938;48.176;16.414;2022-12-07T06:49:42;16.38;;;6.25;;
61978;SDS011;47938;48.176;16.414;2022-12-07T06:52:08;10.05;;;5.68;;
61978;SDS011;47938;48.176;16.414;2022-12-07T06:54:33;10.82;;;6.38;;
61978;SDS011;47938;48.176;16.414;2022-12-07T06:56:59;21.95;;;6.82;;
61978;SDS011;47938;48.176;16.414;2022-12-07T06:59:25;8.80;;;5.72;;
61978;SDS011;47938;48.176;16.414;2022-12-07T07:01:51;9.82;;;6.28;;
61978;SDS011;47938;48.176;16.414;2022-12-07T07:04:17;10.85;;;6.10;;
61978;SDS011;47938;48.176;16.414;2022-12-07T07:06:42;19.05;;;6.75;;
61978;SDS011;47938;48.176;16.414;2022-12-07T07:09:08;8.95;;;6.07;;
61978;SDS011;47938;48.176;16.414;2022-12-07T07:11:33;8.27;;;5.13;;
61978;SDS011;47938;48.176;16.414;2022-12-07T07:13:59;11.45;;;6.10;;
61978;SDS011;47938;48.176;16.414;2022-12-07T07:16:24;12.85;;;5.45;;
61978;SDS011;47938;48.176;16.414;2022-12-07T07:18:50;8.85;;;5.13;;
61978;SDS011;47938;48.176;16.414;2022-12-07T07:21:16;11.32;;;5.45;;
61978;SDS011;47938;48.176;16.414;2022-12-07T07:23:41;12.27;;;5.22;;
61978;SDS011;47938;48.176;16.414;2022-12-07T07:26:07;11.20;;;4.90;;
61978;SDS011;47938;48.176;16.414;2022-12-07T07:28:32;12.27;;;5.65;;
61978;SDS011;47938;48.176;16.414;2022-12-07T07:30:58;9.77;;;5.68;;
61978;SDS011;47938;48.176;16.414;2022-12-07T07:33:24;12.65;;;5.00;;
61978;SDS011;47938;48.176;16.414;2022-12-07T07:35:49;7.32;;;4.82;;
61978;SDS011;47938;48.176;16.414;2022-12-07T07:38:15;11.85;;;5.93;;
61978;SDS011;47938;48.176;16.414;2022-12-07T07:40:40;27.48;;;8.95;;
61978;SDS011;47938;48.176;16.414;2022-12-07T07:43:06;9.70;;;5.82;;
61978;SDS011;47938;48.176;16.414;2022-12-07T07:45:32;9.35;;;5.28;;
61978;SDS011;47938;48.176;16.414;2022-12-07T07:47:57;7.93;;;5.13;;
61978;SDS011;47938;48.176;16.414;2022-12-07T07:50:23;24.20;;;5.55;;
61978;SDS011;47938;48.176;16.414;2022-12-07T07:52:48;14.07;;;5.03;;
61978;SDS011;47938;48.176;16.414;2022-12-07T07:55:16;8.27;;;4.75;;
61978;SDS011;47938;48.176;16.414;2022-12-07T07:57:41;7.95;;;5.22;;
61978;SDS011;47938;48.176;16.414;2022-12-07T08:00:09;5.53;;;4.10;;
61978;SDS011;47938;48.176;16.414;2022-12-07T08:02:36;11.07;;;4.97;;
61978;SDS011;47938;48.176;16.414;2022-12-07T08:05:02;6.85;;;4.88;;
61978;SDS011;47938;48.176;16.414;2022-12-07T08:07:28;8.15;;;4.75;;
61978;SDS011;47938;48.176;16.414;2022-12-07T08:09:53;9.25;;;5.45;;
61978;SDS011;47938;48.176;16.414;2022-12-07T08:12:19;11.18;;;5.10;;
61978;SDS011;47938;48.176;16.414;2022-12-07T08:14:45;7.43;;;4.93;;
61978;SDS011;47938;48.176;16.414;2022-12-07T08:17:10;9.32;;;5.00;;
61978;SDS011;47938;48.176;16.414;2022-12-07T08:19:36;7.60;;;4.72;;
61978;SDS011;47938;48.176;16.414;2022-12-07T08:22:02;8.85;;;4.20;;
61978;SDS011;47938;48.176;16.414;2022-12-07T08:24:27;11.60;;;4.20;;
61978;SDS011;47938;48.176;16.414;2022-12-07T08:26:53;11.27;;;5.65;;
61978;SDS011;47938;48.176;16.414;2022-12-07T08:29:19;8.02;;;5.10;;
61978;SDS011;47938;48.176;16.414;2022-12-07T08:31:44;7.50;;;4.78;;
61978;SDS011;47938;48.176;16.414;2022-12-07T08:34:10;7.50;;;4.13;;
61978;SDS011;47938;48.176;16.414;2022-12-07T08:36:36;6.30;;;4.30;;
61978;SDS011;47938;48.176;16.414;2022-12-07T08:39:02;6.45;;;4.32;;
61978;SDS011;47938;48.176;16.414;2022-12-07T08:41:28;7.13;;;4.55;;
61978;SDS011;47938;48.176;16.414;2022-12-07T08:43:54;11.63;;;4.70;;
61978;SDS011;47938;48.176;16.414;2022-12-07T08:48:56;10.57;;;4.63;;
61978;SDS011;47938;48.176;16.414;2022-12-07T08:51:26;7.03;;;5.00;;
61978;SDS011;47938;48.176;16.414;2022-12-07T08:53:53;9.68;;;4.88;;
61978;SDS011;47938;48.176;16.414;2022-12-07T08:56:20;11.07;;;4.10;;
61978;SDS011;47938;48.176;16.414;2022-12-07T08:58:47;6.18;;;4.07;;
61978;SDS011;47938;48.176;16.414;2022-12-07T09:01:13;6.30;;;3.83;;
61978;SDS011;47938;48.176;16.414;2022-12-07T09:03:39;8.25;;;4.15;;
61978;SDS011;47938;48.176;16.414;2022-12-07T09:06:04;8.07;;;4.57;;
61978;SDS011;47938;48.176;16.414;2022-12-07T09:08:39;9.38;;;5.10;;
61978;SDS011;47938;48.176;16.414;2022-12-07T09:11:08;6.82;;;4.30;;
61978;SDS011;47938;48.176;16.414;2022-12-07T09:13:34;7.05;;;3.72;;
61978;SDS011;47938;48.176;16.414;2022-12-07T09:15:59;5.38;;;4.40;;
61978;SDS011;47938;48.176;16.414;2022-12-07T09:18:25;7.78;;;4.82;;
61978;SDS011;47938;48.176;16.414;2022-12-07T09:20:51;7.80;;;4.53;;
61978;SDS011;47938;48.176;16.414;2022-12-07T09:23:16;5.55;;;4.25;;
61978;SDS011;47938;48.176;16.414;2022-12-07T09:25:42;10.23;;;4.80;;
61978;SDS011;47938;48.176;16.414;2022-12-07T09:28:08;5.78;;;4.38;;
61978;SDS011;47938;48.176;16.414;2022-12-07T09:30:33;6.97;;;4.20;;
61978;SDS011;47938;48.176;16.414;2022-12-07T09:32:59;9.52;;;4.70;;
61978;SDS011;47938;48.176;16.414;2022-12-07T09:35:25;5.40;;;4.15;;
61978;SDS011;47938;48.176;16.414;2022-12-07T09:37:51;9.48;;;5.10;;
61978;SDS011;47938;48.176;16.414;2022-12-07T09:40:17;6.32;;;4.45;;
61978;SDS011;47938;48.176;16.414;2022-12-07T09:42:46;6.15;;;4.60;;
61978;SDS011;47938;48.176;16.414;2022-12-07T09:45:15;8.35;;;4.65;;
61978;SDS011;47938;48.176;16.414;2022-12-07T09:47:44;13.25;;;5.82;;
61978;SDS011;47938;48.176;16.414;2022-12-07T09:50:15;4.95;;;4.25;;
61978;SDS011;47938;48.176;16.414;2022-12-07T09:52:44;9.23;;;4.97;;
61978;SDS011;47938;48.176;16.414;2022-12-07T09:55:12;14.85;;;4.60;;
61978;SDS011;47938;48.176;16.414;2022-12-07T09:57:40;6.95;;;4.75;;
61978;SDS011;47938;48.176;16.414;2022-12-07T10:00:14;13.00;;;5.18;;
61978;SDS011;47938;48.176;16.414;2022-12-07T10:02:43;6.05;;;3.90;;
61978;SDS011;47938;48.176;16.414;2022-12-07T10:05:18;7.50;;;4.78;;
61978;SDS011;47938;48.176;16.414;2022-12-07T10:07:49;9.00;;;4.85;;
61978;SDS011;47938;48.176;16.414;2022-12-07T10:10:17;8.50;;;4.85;;
61978;SDS011;47938;48.176;16.414;2022-12-07T10:15:23;5.93;;;4.22;;
61978;SDS011;47938;48.176;16.414;2022-12-07T10:17:49;6.88;;;4.70;;
61978;SDS011;47938;48.176;16.414;2022-12-07T10:20:19;11.48;;;4.95;;
61978;SDS011;47938;48.176;16.414;2022-12-07T10:23:35;41.60;;;7.18;;
61978;SDS011;47938;48.176;16.414;2022-12-07T10:25:40;6.15;;;4.18;;
61978;SDS011;47938;48.176;16.414;2022-12-07T10:28:11;10.32;;;4.57;;
61978;SDS011;47938;48.176;16.414;2022-12-07T10:33:37;7.80;;;4.90;;
61978;SDS011;47938;48.176;16.414;2022-12-07T10:36:18;6.53;;;4.28;;
61978;SDS011;47938;48.176;16.414;2022-12-07T10:41:28;6.72;;;4.07;;
61978;SDS011;47938;48.176;16.414;2022-12-07T10:43:55;13.55;;;4.10;;
61978;SDS011;47938;48.176;16.414;2022-12-07T10:57:37;15.68;;;4.20;;
61978;SDS011;47938;48.176;16.414;2022-12-07T11:02:54;7.25;;;5.18;;
61978;SDS011;47938;48.176;16.414;2022-12-07T11:30:33;7.10;;;5.40;;
61978;SDS011;47938;48.176;16.414;2022-12-07T11:38:52;7.57;;;4.40;;
61978;SDS011;47938;48.176;16.414;2022-12-07T11:41:22;9.77;;;4.57;;
61978;SDS011;47938;48.176;16.414;2022-12-07T11:44:08;10.73;;;4.90;;
61978;SDS011;47938;48.176;16.414;2022-12-07T11:46:49;10.23;;;4.60;;
61978;SDS011;47938;48.176;16.414;2022-12-07T11:52:11;5.68;;;3.72;;
61978;SDS011;47938;48.176;16.414;2022-12-07T11:54:45;8.48;;;4.15;;
61978;SDS011;47938;48.176;16.414;2022-12-07T11:57:19;8.18;;;3.90;;
61978;SDS011;47938;48.176;16.414;2022-12-07T12:00:02;7.68;;;4.45;;
61978;SDS011;47938;48.176;16.414;2022-12-07T12:02:38;10.15;;;4.72;;
61978;SDS011;47938;48.176;16.414;2022-12-07T12:05:18;7.28;;;4.63;;
61978;SDS011;47938;48.176;16.414;2022-12-07T12:07:46;13.60;;;4.90;;
61978;SDS011;47938;48.176;16.414;2022-12-07T12:10:33;15.02;;;8.35;;
61978;SDS011;47938;48.176;16.414;2022-12-07T12:16:08;7.30;;;5.18;;
61978;SDS011;47938;48.176;16.414;2022-12-07T12:21:15;7.70;;;5.28;;
61978;SDS011;47938;48.176;16.414;2022-12-07T12:26:20;9.98;;;4.72;;
61978;SDS011;47938;48.176;16.414;2022-12-07T12:33:44;13.48;;;5.10;;
61978;SDS011;47938;48.176;16.414;2022-12-07T12:44:01;7.93;;;5.45;;
61978;SDS011;47938;48.176;16.414;2022-12-07T12:49:13;8.43;;;4.50;;
61978;SDS011;47938;48.176;16.414;2022-12-07T12:51:40;8.25;;;4.88;;
61978;SDS011;47938;48.176;16.414;2022-12-07T12:54:12;8.73;;;4.85;;
61978;SDS011;47938;48.176;16.414;2022-12-07T12:59:29;10.77;;;4.47;;
61978;SDS011;47938;48.176;16.414;2022-12-07T13:17:59;5.03;;;3.97;;
61978;SDS011;47938;48.176;16.414;2022-12-07T13:23:12;12.32;;;6.50;;
61978;SDS011;47938;48.176;16.414;2022-12-07T13:25:44;6.13;;;4.72;;
61978;SDS011;47938;48.176;16.414;2022-12-07T13:33:36;11.43;;;6.18;;
61978;SDS011;47938;48.176;16.414;2022-12-07T13:36:02;13.30;;;5.85;;
61978;SDS011;47938;48.176;16.414;2022-12-07T13:38:34;8.85;;;5.68;;
61978;SDS011;47938;48.176;16.414;2022-12-07T13:41:01;7.05;;;4.88;;
61978;SDS011;47938;48.176;16.414;2022-12-07T13:43:48;9.23;;;4.85;;
61978;SDS011;47938;48.176;16.414;2022-12-07T13:46:14;11.32;;;6.20;;
61978;SDS011;47938;48.176;16.414;2022-12-07T13:48:44;11.80;;;5.95;;
61978;SDS011;47938;48.176;16.414;2022-12-07T13:51:17;12.20;;;5.35;;
61978;SDS011;47938;48.176;16.414;2022-12-07T13:53:54;8.27;;;5.60;;
61978;SDS011;47938;48.176;16.414;2022-12-07T13:56:26;7.72;;;5.32;;
61978;SDS011;47938;48.176;16.414;2022-12-07T13:59:00;8.80;;;5.85;;
61978;SDS011;47938;48.176;16.414;2022-12-07T14:01:26;9.05;;;5.70;;
61978;SDS011;47938;48.176;16.414;2022-12-07T14:03:53;9.80;;;5.53;;
61978;SDS011;47938;48.176;16.414;2022-12-07T14:06:25;10.43;;;6.53;;
61978;SDS011;47938;48.176;16.414;2022-12-07T14:09:07;7.32;;;5.50;;
61978;SDS011;47938;48.176;16.414;2022-12-07T14:11:44;10.98;;;5.78;;
61978;SDS011;47938;48.176;16.414;2022-12-07T14:14:20;12.50;;;6.13;;
61978;SDS011;47938;48.176;16.414;2022-12-07T14:19:48;9.57;;;5.90;;
61978;SDS011;47938;48.176;16.414;2022-12-07T14:22:26;9.52;;;6.10;;
61978;SDS011;47938;48.176;16.414;2022-12-07T14:25:43;10.88;;;5.75;;
61978;SDS011;47938;48.176;16.414;2022-12-07T14:27:49;8.50;;;5.93;;
61978;SDS011;47938;48.176;16.414;2022-12-07T14:30:23;8.50;;;6.28;;
61978;SDS011;47938;48.176;16.414;2022-12-07T14:33:01;10.15;;;6.05;;
61978;SDS011;47938;48.176;16.414;2022-12-07T14:35:28;8.50;;;6.25;;
61978;SDS011;47938;48.176;16.414;2022-12-07T14:37:54;8.30;;;6.35;;
61978;SDS011;47938;48.176;16.414;2022-12-07T14:40:21;11.55;;;7.13;;
61978;SDS011;47938;48.176;16.414;2022-12-07T14:42:52;11.75;;;5.95;;
61978;SDS011;47938;48.176;16.414;2022-12-07T14:45:22;9.75;;;6.82;;
61978;SDS011;47938;48.176;16.414;2022-12-07T14:47:48;9.07;;;6.78;;
61978;SDS011;47938;48.176;16.414;2022-12-07T14:50:15;10.93;;;6.50;;
61978;SDS011;47938;48.176;16.414;2022-12-07T14:52:43;10.38;;;6.90;;
61978;SDS011;47938;48.176;16.414;2022-12-07T14:55:16;11.30;;;6.50;;
61978;SDS011;47938;48.176;16.414;2022-12-07T14:57:51;14.63;;;6.72;;
61978;SDS011;47938;48.176;16.414;2022-12-07T15:00:18;12.82;;;6.78;;
61978;SDS011;47938;48.176;16.414;2022-12-07T15:02:45;13.90;;;8.15;;
61978;SDS011;47938;48.176;16.414;2022-12-07T15:05:12;14.32;;;7.93;;
61978;SDS011;47938;48.176;16.414;2022-12-07T15:07:38;13.32;;;7.00;;
61978;SDS011;47938;48.176;16.414;2022-12-07T15:10:04;13.30;;;7.80;;
61978;SDS011;47938;48.176;16.414;2022-12-07T15:12:31;13.20;;;7.65;;
61978;SDS011;47938;48.176;16.414;2022-12-07T15:14:57;14.18;;;6.65;;
61978;SDS011;47938;48.176;16.414;2022-12-07T15:17:23;13.98;;;7.28;;
61978;SDS011;47938;48.176;16.414;2022-12-07T15:19:48;17.08;;;8.40;;
61978;SDS011;47938;48.176;16.414;2022-12-07T15:22:14;10.07;;;6.88;;
61978;SDS011;47938;48.176;16.414;2022-12-07T15:24:39;10.73;;;7.07;;
61978;SDS011;47938;48.176;16.414;2022-12-07T15:27:05;9.35;;;6.82;;
61978;SDS011;47938;48.176;16.414;2022-12-07T15:29:31;11.98;;;6.57;;
61978;SDS011;47938;48.176;16.414;2022-12-07T15:31:56;10.15;;;7.70;;
61978;SDS011;47938;48.176;16.414;2022-12-07T15:34:26;11.48;;;7.75;;
61978;SDS011;47938;48.176;16.414;2022-12-07T15:36:52;14.13;;;7.38;;
61978;SDS011;47938;48.176;16.414;2022-12-07T15:39:18;14.57;;;8.43;;
61978;SDS011;47938;48.176;16.414;2022-12-07T15:41:43;10.93;;;8.30;;
61978;SDS011;47938;48.176;16.414;2022-12-07T15:44:11;14.73;;;7.60;;
61978;SDS011;47938;48.176;16.414;2022-12-07T15:46:38;12.35;;;8.50;;
61978;SDS011;47938;48.176;16.414;2022-12-07T15:49:15;11.02;;;7.88;;
61978;SDS011;47938;48.176;16.414;2022-12-07T15:51:43;11.30;;;7.82;;
61978;SDS011;47938;48.176;16.414;2022-12-07T15:54:27;16.10;;;8.63;;
61978;SDS011;47938;48.176;16.414;2022-12-07T15:56:54;12.98;;;7.93;;
61978;SDS011;47938;48.176;16.414;2022-12-07T15:59:20;13.77;;;8.00;;
61978;SDS011;47938;48.176;16.414;2022-12-07T16:01:46;23.42;;;9.45;;
61978;SDS011;47938;48.176;16.414;2022-12-07T16:04:12;13.65;;;8.50;;
61978;SDS011;47938;48.176;16.414;2022-12-07T16:06:38;11.13;;;8.20;;
61978;SDS011;47938;48.176;16.414;2022-12-07T16:09:04;13.48;;;8.60;;
61978;SDS011;47938;48.176;16.414;2022-12-07T16:11:30;12.45;;;7.90;;
61978;SDS011;47938;48.176;16.414;2022-12-07T16:13:55;16.10;;;8.90;;
61978;SDS011;47938;48.176;16.414;2022-12-07T16:16:21;13.50;;;8.23;;
61978;SDS011;47938;48.176;16.414;2022-12-07T16:18:47;17.08;;;11.55;;
61978;SDS011;47938;48.176;16.414;2022-12-07T16:21:13;14.60;;;9.10;;
61978;SDS011;47938;48.176;16.414;2022-12-07T16:23:40;12.57;;;7.35;;
61978;SDS011;47938;48.176;16.414;2022-12-07T16:26:11;12.52;;;8.60;;
61978;SDS011;47938;48.176;16.414;2022-12-07T16:28:39;12.43;;;8.32;;
61978;SDS011;47938;48.176;16.414;2022-12-07T16:31:08;14.90;;;9.50;;
61978;SDS011;47938;48.176;16.414;2022-12-07T16:33:39;10.82;;;7.28;;
61978;SDS011;47938;48.176;16.414;2022-12-07T16:36:06;12.10;;;8.10;;
61978;SDS011;47938;48.176;16.414;2022-12-07T16:38:34;12.77;;;8.07;;
61978;SDS011;47938;48.176;16.414;2022-12-07T16:41:00;11.07;;;7.45;;
61978;SDS011;47938;48.176;16.414;2022-12-07T16:43:26;12.05;;;8.38;;
61978;SDS011;47938;48.176;16.414;2022-12-07T16:45:52;10.90;;;8.23;;
61978;SDS011;47938;48.176;16.414;2022-12-07T16:48:18;16.05;;;8.07;;
61978;SDS011;47938;48.176;16.414;2022-12-07T16:50:43;13.35;;;8.25;;
61978;SDS011;47938;48.176;16.414;2022-12-07T16:53:10;12.48;;;8.68;;